This is the latest recevied weather packets stored in our database for station/object W0NKY-13. If no packets are shown the sender has not sent any weather packets the latest 10 day(s).
| Time | Temp. | Humidity | Pressure | Rain* | Wind** | Luminosity | Snow |
|---|---|---|---|---|---|---|---|
| 1777619718 | 3.89° C | 95% | 1015.7 hPa | 0 mm | - | 0 W/m² | - |
| 1777610119 | 3.33° C | 94% | 1016.7 hPa | 0 mm | - | 0 W/m² | - |
| 1777601717 | 5° C | 85% | 1017.7 hPa | 0 mm | - | 0 W/m² | - |
| 1777601120 | 5.56° C | 85% | 1017.5 hPa | 0 mm | - | 0 W/m² | - |
| 1777599318 | 5.56° C | 81% | 1017.5 hPa | 0 mm | - | 0 W/m² | - |
| 1777594519 | 11.11° C | 58% | 1017.1 hPa | 0 mm | - | 11 W/m² | - |
| 1777592119 | 12.22° C | 54% | 1016.9 hPa | 0 mm | - | 31 W/m² | - |
| 1777587940 | 15.56° C | 44% | 1017.2 hPa | 0 mm | - | 549 W/m² | - |
| 1777587317 | 15.56° C | 42% | 1017.3 hPa | 0 mm | - | 823 W/m² | - |
| 1777581918 | 16.67° C | 43% | 1017.8 hPa | 0 mm | - | 720 W/m² | - |
| 1777578919 | 17.22° C | 43% | 1018.1 hPa | 0 mm | - | 471 W/m² | - |
| 1777573517 | 16.11° C | 47% | 1018.8 hPa | 0 mm | - | 222 W/m² | - |
| 1777562740 | 15.56° C | 54% | 1019.4 hPa | 0 mm | - | 87 W/m² | - |
| 1777560320 | 14.44° C | 59% | 1019.3 hPa | 0 mm | - | 52 W/m² | - |
| 1777557318 | 12.78° C | 64% | 1019.2 hPa | 0 mm | - | 63 W/m² | - |
| 1777554919 | 9.44° C | 73% | 1018.9 hPa | 0 mm | - | 37 W/m² | - |
| 1777554318 | 9.44° C | 73% | 1018.6 hPa | 0 mm | - | 29 W/m² | - |
| 1777552519 | 7.22° C | 82% | 1018.2 hPa | 0 mm | - | 42 W/m² | - |
| 1777550116 | 5° C | 86% | 1017.7 hPa | 0 mm | - | 28 W/m² | - |
| 1777545920 | 4.44° C | 88% | 1016.5 hPa | 0 mm | - | 1 W/m² | - |
| 1777544738 | 4.44° C | 86% | 1016.5 hPa | 0 mm | - | 0 W/m² | - |
| 1777543538 | 5° C | 85% | 1016.4 hPa | 0 mm | - | 0 W/m² | - |
| 1777539938 | 5.56° C | 84% | 1016.3 hPa | 0 mm | - | 0 W/m² | - |
| 1777538119 | 5.56° C | 84% | 1016.2 hPa | 0 mm | - | 0 W/m² | - |
| 1777536319 | 5.56° C | 88% | 1016.3 hPa | 0 mm | - | 0 W/m² | - |
* Rain latest hour (hover to see other rain measurements)
** Current wind speed in m/s (hover to see current wind gust speed)